Time;durP1;ratioP1;P1;durP2;ratioP2;P2;SDS_P1;SDS_P2;PMS_P1;PMS_P2;Temp;Humidity;BMP_temperature;BMP_pressure;BME280_temperature;BME280_humidity;BME280_pressure;Samples;Min_cycle;Max_cycle;Signal;HPM_P1;HPM_P2
2022/03/25 00:02:07;;;;;;;54.45;32.10;;;3.60;99.90;;;;;;7240769;32;20117;-59
2022/03/25 00:06:09;;;;;;;49.78;30.62;;;3.50;99.90;;;;;;7244974;32;21033;-59
2022/03/25 00:10:11;;;;;;;50.95;30.25;;;3.40;99.90;;;;;;7242134;32;20896;-60
2022/03/25 00:14:12;;;;;;;48.22;30.45;;;3.40;99.90;;;;;;7241141;32;20130;-60
2022/03/25 00:18:14;;;;;;;55.85;33.00;;;3.40;99.90;;;;;;7240302;32;20456;-61
2022/03/25 00:22:16;;;;;;;56.88;31.95;;;3.30;99.90;;;;;;7238213;32;20218;-59
2022/03/25 00:26:18;;;;;;;52.70;31.50;;;3.30;99.90;;;;;;7240608;32;20454;-59
2022/03/25 00:30:19;;;;;;;54.55;31.17;;;3.20;99.90;;;;;;7240416;32;20574;-60
2022/03/25 00:34:21;;;;;;;52.53;31.52;;;3.10;99.90;;;;;;7241224;32;20531;-60
2022/03/25 00:38:22;;;;;;;54.08;32.60;;;3.20;99.90;;;;;;7241480;32;20397;-60
2022/03/25 00:42:25;;;;;;;53.10;31.55;;;2.90;99.90;;;;;;7241921;32;20109;-58
2022/03/25 00:46:27;;;;;;;55.92;32.58;;;2.90;99.90;;;;;;7239259;32;20815;-58
2022/03/25 00:50:29;;;;;;;53.47;31.33;;;2.90;99.90;;;;;;7240894;32;20211;-58
2022/03/25 00:54:31;;;;;;;53.05;32.72;;;2.90;99.90;;;;;;7239316;32;20112;-58
2022/03/25 00:58:33;;;;;;;56.95;34.95;;;2.90;99.90;;;;;;7241994;32;20200;-58
2022/03/25 01:02:34;;;;;;;59.83;32.10;;;2.90;99.90;;;;;;7240903;32;20441;-58
2022/03/25 01:06:36;;;;;;;55.20;32.03;;;2.80;99.90;;;;;;7240212;32;20136;-58
2022/03/25 01:10:38;;;;;;;52.15;32.53;;;2.70;99.90;;;;;;7239757;32;20459;-58
2022/03/25 01:14:40;;;;;;;57.45;32.13;;;2.70;99.90;;;;;;7241318;32;20159;-58
2022/03/25 01:18:42;;;;;;;52.38;30.92;;;2.70;99.90;;;;;;7240571;32;20519;-58
2022/03/25 01:22:44;;;;;;;52.15;30.58;;;2.60;99.90;;;;;;7241730;32;20117;-58
2022/03/25 01:26:46;;;;;;;54.83;32.55;;;2.50;99.90;;;;;;7239153;32;20179;-59
2022/03/25 01:30:47;;;;;;;56.15;31.25;;;2.50;99.90;;;;;;7244384;32;20130;-59
2022/03/25 01:34:49;;;;;;;53.08;31.17;;;2.40;99.90;;;;;;7245712;32;20140;-58
2022/03/25 01:38:51;;;;;;;53.40;31.65;;;2.40;99.90;;;;;;7244929;32;20240;-60
2022/03/25 01:42:53;;;;;;;50.63;29.60;;;2.40;99.90;;;;;;7246955;32;20113;-60
2022/03/25 01:46:56;;;;;;;53.85;31.40;;;2.40;99.90;;;;;;7245675;32;20116;-60
2022/03/25 01:51:01;;;;;;;56.08;31.52;;;2.40;99.90;;;;;;7245391;32;20535;-60
2022/03/25 01:55:21;;;;;;;54.40;31.20;;;2.30;99.90;;;;;;7239869;32;20116;-59
2022/03/25 01:59:23;;;;;;;53.55;31.35;;;2.30;99.90;;;;;;7240393;32;20124;-59
2022/03/25 02:03:26;;;;;;;53.75;30.98;;;2.30;99.90;;;;;;7244157;32;20132;-60
2022/03/25 02:07:27;;;;;;;55.30;31.65;;;2.20;99.90;;;;;;7240718;32;20175;-57
2022/03/25 02:11:30;;;;;;;52.97;32.22;;;2.20;99.90;;;;;;7243458;32;20338;-59
2022/03/25 02:15:34;;;;;;;58.30;31.50;;;2.10;99.90;;;;;;7243148;32;20117;-58
2022/03/25 02:19:35;;;;;;;56.80;32.70;;;2.10;99.90;;;;;;7245027;32;20112;-59
2022/03/25 02:23:37;;;;;;;53.75;31.23;;;2.10;99.90;;;;;;7245428;32;20232;-60
2022/03/25 02:27:39;;;;;;;54.58;30.35;;;2.10;99.90;;;;;;7243953;32;20180;-59
2022/03/25 02:31:41;;;;;;;53.75;31.55;;;2.00;99.90;;;;;;7243222;32;20112;-58
2022/03/25 02:35:45;;;;;;;55.15;31.05;;;2.00;99.90;;;;;;7242946;32;20109;-58
2022/03/25 02:39:47;;;;;;;50.17;29.85;;;2.00;99.90;;;;;;7242709;32;20442;-58
2022/03/25 02:43:48;;;;;;;56.53;31.45;;;1.90;99.90;;;;;;7243747;32;20131;-58
2022/03/25 02:47:50;;;;;;;51.47;30.73;;;1.90;99.90;;;;;;7241773;32;20116;-58
2022/03/25 02:51:52;;;;;;;51.72;30.50;;;1.90;99.90;;;;;;7241758;32;20135;-58
2022/03/25 02:55:56;;;;;;;49.00;29.83;;;1.80;99.90;;;;;;7243955;32;20209;-58
2022/03/25 02:59:58;;;;;;;57.35;31.23;;;1.70;99.90;;;;;;7243994;32;20131;-58
2022/03/25 03:03:59;;;;;;;56.50;31.83;;;1.60;99.90;;;;;;7232531;32;20262;-58
2022/03/25 03:08:01;;;;;;;54.88;29.98;;;1.60;99.90;;;;;;7240882;32;20112;-58
2022/03/25 03:12:04;;;;;;;57.95;31.75;;;1.60;99.90;;;;;;7242879;32;20174;-59
2022/03/25 03:16:06;;;;;;;53.13;30.05;;;1.60;99.90;;;;;;7241141;32;20116;-59
2022/03/25 03:20:09;;;;;;;54.78;31.62;;;1.60;99.90;;;;;;7239231;32;20509;-58
2022/03/25 03:24:11;;;;;;;54.92;30.73;;;1.60;99.90;;;;;;7240548;32;20131;-59
2022/03/25 03:28:13;;;;;;;52.75;29.83;;;1.60;99.90;;;;;;7233642;32;20232;-59
2022/03/25 03:32:15;;;;;;;53.22;29.50;;;1.50;99.90;;;;;;7240163;32;20203;-59
2022/03/25 03:36:17;;;;;;;53.35;30.05;;;1.50;99.90;;;;;;7240877;32;20696;-59
2022/03/25 03:40:19;;;;;;;54.28;31.08;;;1.50;99.90;;;;;;7240810;32;20135;-59
2022/03/25 03:44:21;;;;;;;51.53;28.73;;;1.50;99.90;;;;;;7243157;32;20453;-59
2022/03/25 03:48:23;;;;;;;52.97;29.35;;;1.40;99.90;;;;;;7241971;32;20221;-58
2022/03/25 03:52:25;;;;;;;55.05;29.90;;;1.40;99.90;;;;;;7242116;32;20109;-59
2022/03/25 03:56:27;;;;;;;59.28;30.92;;;1.40;99.90;;;;;;7242198;32;20134;-58
2022/03/25 04:00:29;;;;;;;48.87;27.75;;;1.40;99.90;;;;;;7238008;32;20249;-59
2022/03/25 04:04:31;;;;;;;53.28;29.58;;;1.40;99.90;;;;;;7242085;32;20454;-59
2022/03/25 04:08:34;;;;;;;48.25;28.83;;;1.30;99.90;;;;;;7236941;32;20587;-58
2022/03/25 04:12:36;;;;;;;49.70;28.05;;;1.40;99.90;;;;;;7235706;32;20592;-59
2022/03/25 04:16:38;;;;;;;52.45;30.17;;;1.30;99.90;;;;;;7240000;32;20108;-58
2022/03/25 04:20:40;;;;;;;51.45;29.20;;;1.30;99.90;;;;;;7235232;32;20196;-59
2022/03/25 04:24:41;;;;;;;53.50;29.08;;;1.30;99.90;;;;;;7239116;32;20124;-58
2022/03/25 04:28:43;;;;;;;50.95;28.77;;;1.20;99.90;;;;;;7240622;32;20249;-59
2022/03/25 04:32:44;;;;;;;49.50;28.95;;;1.20;99.90;;;;;;7241132;32;20196;-59
2022/03/25 04:36:46;;;;;;;53.38;28.33;;;1.20;99.90;;;;;;7240235;32;20208;-59
2022/03/25 04:40:48;;;;;;;48.78;27.52;;;1.30;99.90;;;;;;7239775;32;20135;-58
2022/03/25 04:44:50;;;;;;;53.10;29.73;;;1.10;99.90;;;;;;7240228;32;20701;-58
2022/03/25 04:48:51;;;;;;;59.67;30.15;;;1.00;99.90;;;;;;7239416;32;20150;-58
2022/03/25 04:52:54;;;;;;;51.78;28.52;;;1.00;99.90;;;;;;7238341;32;20112;-57
2022/03/25 04:56:55;;;;;;;47.62;28.08;;;1.00;99.90;;;;;;7240008;32;20226;-58
2022/03/25 05:00:57;;;;;;;49.20;28.10;;;1.10;99.90;;;;;;7238698;32;20469;-58
2022/03/25 05:04:59;;;;;;;49.13;27.50;;;1.00;99.90;;;;;;7237805;32;20176;-59
2022/03/25 05:09:01;;;;;;;51.15;28.60;;;1.00;99.90;;;;;;7242804;32;20104;-59
2022/03/25 05:13:02;;;;;;;46.05;27.23;;;0.90;99.90;;;;;;7246669;32;20305;-57
2022/03/25 05:17:05;;;;;;;50.45;28.90;;;1.00;99.90;;;;;;7241375;32;20126;-58
2022/03/25 05:21:07;;;;;;;51.17;29.63;;;1.00;99.90;;;;;;7245301;32;20109;-59
2022/03/25 05:25:09;;;;;;;56.05;29.52;;;1.00;99.90;;;;;;7245532;32;20311;-58
2022/03/25 05:29:11;;;;;;;50.53;27.92;;;1.00;99.90;;;;;;7239844;32;20232;-57
2022/03/25 05:33:12;;;;;;;47.65;26.98;;;1.00;99.90;;;;;;7237566;32;20496;-58
2022/03/25 05:37:14;;;;;;;55.60;28.30;;;1.00;99.90;;;;;;7236064;32;20438;-59
2022/03/25 05:41:16;;;;;;;54.22;28.30;;;1.10;99.90;;;;;;7233137;32;20524;-60
2022/03/25 05:45:20;;;;;;;52.17;28.15;;;1.00;99.90;;;;;;7229905;32;20202;-59
2022/03/25 05:49:21;;;;;;;52.62;27.90;;;1.20;99.90;;;;;;7236294;32;20464;-59
2022/03/25 05:53:23;;;;;;;55.97;30.90;;;1.10;99.90;;;;;;7238021;32;20621;-60
2022/03/25 05:57:25;;;;;;;49.75;29.23;;;1.10;99.90;;;;;;7220901;32;20108;-59
2022/03/25 06:01:29;;;;;;;49.80;28.92;;;1.20;99.90;;;;;;7230369;32;20104;-60
2022/03/25 06:05:31;;;;;;;52.62;28.00;;;1.20;99.90;;;;;;7233178;32;20175;-60
2022/03/25 06:09:32;;;;;;;48.08;28.62;;;1.20;99.90;;;;;;7239378;32;20692;-60
2022/03/25 06:13:34;;;;;;;50.20;28.00;;;1.40;99.90;;;;;;7236595;32;20188;-62
2022/03/25 06:17:43;;;;;;;51.17;28.25;;;1.40;99.90;;;;;;7238177;32;20569;-61
2022/03/25 06:21:45;;;;;;;51.20;29.85;;;1.60;99.90;;;;;;7227802;32;20201;-63
2022/03/25 06:25:47;;;;;;;56.60;30.65;;;1.60;99.90;;;;;;7241692;32;20540;-60
2022/03/25 06:29:49;;;;;;;47.35;28.75;;;1.70;99.90;;;;;;7240183;32;20476;-60
2022/03/25 06:33:50;;;;;;;50.00;30.12;;;1.90;99.90;;;;;;7231112;32;20376;-61
2022/03/25 06:37:53;;;;;;;70.45;41.60;;;2.00;99.90;;;;;;7236165;32;20568;-60
2022/03/25 06:41:54;;;;;;;51.95;30.30;;;2.10;99.90;;;;;;7234154;32;20580;-59
2022/03/25 06:45:56;;;;;;;54.72;29.02;;;2.30;99.90;;;;;;7235279;32;20468;-59
2022/03/25 06:49:58;;;;;;;54.08;29.58;;;2.50;99.90;;;;;;7242830;32;20543;-60
2022/03/25 06:54:00;;;;;;;53.42;30.42;;;2.50;99.90;;;;;;7228968;32;20195;-61
2022/03/25 06:58:02;;;;;;;58.40;32.53;;;2.80;99.90;;;;;;7242345;32;20123;-59
2022/03/25 07:02:04;;;;;;;55.25;31.52;;;3.00;99.90;;;;;;7236938;32;20903;-59
2022/03/25 07:06:08;;;;;;;53.92;30.58;;;3.20;99.90;;;;;;7222317;32;20180;-59
2022/03/25 07:10:11;;;;;;;52.05;31.10;;;3.40;99.90;;;;;;7232762;32;20659;-63
2022/03/25 07:14:13;;;;;;;57.55;31.40;;;3.70;99.90;;;;;;7231183;32;21552;-59
2022/03/25 07:18:15;;;;;;;50.47;30.50;;;3.80;99.90;;;;;;7234500;32;20175;-60
2022/03/25 07:22:17;;;;;;;54.22;32.55;;;4.10;99.90;;;;;;7228338;32;20603;-61
2022/03/25 07:26:19;;;;;;;56.45;33.05;;;4.30;99.90;;;;;;7232989;32;20192;-59
2022/03/25 07:30:20;;;;;;;51.00;33.13;;;4.60;99.90;;;;;;7229236;32;20405;-59
2022/03/25 07:34:22;;;;;;;53.75;32.67;;;4.80;99.90;;;;;;7230071;32;20729;-59
2022/03/25 07:38:24;;;;;;;56.47;32.80;;;5.00;99.90;;;;;;7235423;32;20131;-63
2022/03/25 07:42:26;;;;;;;52.53;32.90;;;5.20;99.90;;;;;;7234919;32;20215;-61
2022/03/25 07:46:28;;;;;;;50.53;32.60;;;5.50;99.90;;;;;;7234953;32;20267;-62
2022/03/25 07:50:31;;;;;;;60.67;36.30;;;5.80;99.90;;;;;;7233833;32;20345;-63
2022/03/25 07:54:33;;;;;;;52.75;33.08;;;6.10;99.90;;;;;;7224132;32;20199;-60
2022/03/25 07:58:35;;;;;;;54.53;34.65;;;6.40;99.90;;;;;;7235619;32;20270;-59
2022/03/25 08:02:42;;;;;;;53.10;35.13;;;6.90;99.90;;;;;;7238095;32;20187;-59
2022/03/25 08:06:45;;;;;;;;;;;7.40;99.90;;;;;;7235932;32;20229;-59
2022/03/25 08:10:47;;;;;;;51.00;34.15;;;7.70;99.90;;;;;;7235135;32;20012;-60
2022/03/25 08:14:49;;;;;;;51.17;32.92;;;8.10;99.90;;;;;;7230941;32;20247;-60
2022/03/25 08:18:52;;;;;;;51.20;31.80;;;8.90;99.90;;;;;;7232099;32;20228;-63
2022/03/25 08:22:58;;;;;;;51.78;33.53;;;9.90;99.90;;;;;;7231197;32;20341;-60
2022/03/25 08:31:21;;;;;;;46.03;32.35;;;11.60;99.90;;;;;;7229770;32;20664;-62
2022/03/25 08:35:27;;;;;;;48.87;32.25;;;12.80;99.90;;;;;;7232497;32;20116;-60
2022/03/25 08:39:29;;;;;;;44.60;33.10;;;14.20;99.90;;;;;;7231963;32;20681;-59
2022/03/25 08:43:31;;;;;;;42.60;31.20;;;15.10;99.90;;;;;;7228650;32;20234;-61
2022/03/25 08:47:33;;;;;;;44.22;31.50;;;16.00;99.90;;;;;;7232907;32;20202;-61
2022/03/25 08:51:35;;;;;;;46.15;31.92;;;16.30;99.90;;;;;;7230585;32;20191;-62
2022/03/25 08:55:37;;;;;;;40.70;29.60;;;16.60;99.80;;;;;;7235169;32;20219;-60
2022/03/25 08:59:39;;;;;;;41.83;28.52;;;17.00;98.40;;;;;;7235703;32;20131;-60
2022/03/25 09:03:41;;;;;;;35.47;26.17;;;17.70;91.20;;;;;;7237800;32;20588;-59
2022/03/25 09:07:43;;;;;;;29.50;19.35;;;18.10;82.90;;;;;;7238362;32;20169;-60
2022/03/25 09:11:45;;;;;;;27.65;17.37;;;17.70;72.80;;;;;;7237596;32;20448;-61
2022/03/25 09:15:47;;;;;;;25.27;16.73;;;18.00;69.70;;;;;;7239139;32;20139;-60
2022/03/25 09:19:49;;;;;;;29.65;16.75;;;17.70;62.90;;;;;;7237845;32;20100;-63
2022/03/25 09:23:50;;;;;;;22.13;16.15;;;17.60;63.70;;;;;;7238490;32;20931;-62
2022/03/25 09:27:52;;;;;;;27.02;15.52;;;17.40;61.20;;;;;;7239006;32;20131;-60
2022/03/25 09:31:58;;;;;;;29.85;16.35;;;17.60;65.50;;;;;;7239542;32;20105;-60
2022/03/25 09:36:20;;;;;;;28.35;16.87;;;17.60;67.20;;;;;;7239379;32;20088;-61
2022/03/25 09:40:25;;;;;;;28.70;17.60;;;17.70;62.00;;;;;;7239448;32;20096;-62
2022/03/25 09:44:27;;;;;;;27.58;16.83;;;18.50;61.20;;;;;;7237045;32;20104;-60
2022/03/25 09:48:28;;;;;;;28.62;15.30;;;18.70;59.50;;;;;;7239092;32;20116;-60
2022/03/25 09:52:51;;;;;;;27.05;15.80;;;18.20;56.60;;;;;;7243890;32;20097;-59
2022/03/25 09:57:07;;;;;;;24.42;16.35;;;18.20;56.30;;;;;;7244019;32;20096;-61
2022/03/25 10:01:09;;;;;;;28.65;18.33;;;19.20;55.30;;;;;;7242384;32;20171;-61
2022/03/25 10:05:18;;;;;;;30.88;17.67;;;19.40;54.60;;;;;;7237886;32;20682;-61
2022/03/25 10:09:23;;;;;;;35.50;21.20;;;19.20;53.60;;;;;;7236775;32;20309;-61
2022/03/25 10:13:25;;;;;;;34.35;19.20;;;18.90;54.40;;;;;;7238408;32;20109;-60
2022/03/25 10:17:26;;;;;;;32.25;18.48;;;19.00;56.00;;;;;;7233521;32;20134;-60
2022/03/25 10:21:48;;;;;;;30.23;19.35;;;18.70;55.70;;;;;;7231096;32;20207;-63
2022/03/25 10:25:57;;;;;;;29.70;19.40;;;18.60;56.80;;;;;;7226142;32;20251;-62
2022/03/25 10:30:05;;;;;;;34.65;21.60;;;19.60;56.50;;;;;;7233358;32;20235;-61
2022/03/25 10:34:18;;;;;;;31.27;18.98;;;18.50;56.90;;;;;;7236452;32;20150;-64
2022/03/25 10:38:24;;;;;;;33.53;22.17;;;19.10;57.30;;;;;;7235723;32;20255;-61
2022/03/25 10:42:25;;;;;;;33.83;21.27;;;18.60;56.40;;;;;;7230076;32;20322;-61
2022/03/25 10:46:35;;;;;;;31.33;21.37;;;18.20;59.30;;;;;;7232430;32;20271;-64
2022/03/25 10:50:56;;;;;;;34.83;23.17;;;18.70;57.50;;;;;;7229129;32;20733;-62
2022/03/25 10:55:14;;;;;;;31.90;21.87;;;19.00;57.00;;;;;;7229460;32;20196;-60
2022/03/25 10:59:31;;;;;;;35.47;21.25;;;18.50;57.20;;;;;;7231758;32;20883;-61
2022/03/25 11:03:33;;;;;;;34.60;21.40;;;18.60;56.50;;;;;;7232902;32;20863;-60
2022/03/25 11:07:37;;;;;;;31.50;19.42;;;18.60;55.60;;;;;;7241024;32;20109;-60
2022/03/25 11:11:41;;;;;;;29.35;17.83;;;18.60;56.80;;;;;;7239466;32;20108;-60
2022/03/25 11:15:44;;;;;;;29.45;19.20;;;18.90;56.70;;;;;;7236259;32;20105;-62
2022/03/25 11:19:48;;;;;;;28.02;18.70;;;18.70;56.10;;;;;;7235260;32;20104;-61
2022/03/25 11:23:54;;;;;;;32.92;19.58;;;18.70;56.20;;;;;;7235329;32;20265;-60
2022/03/25 11:28:04;;;;;;;27.67;17.62;;;18.50;56.90;;;;;;7236718;32;20114;-60
2022/03/25 11:32:11;;;;;;;36.67;18.87;;;18.00;56.50;;;;;;7238740;32;20813;-61
2022/03/25 11:36:16;;;;;;;30.77;18.75;;;17.90;56.80;;;;;;7237442;32;20525;-60
2022/03/25 11:40:22;;;;;;;28.70;15.48;;;17.20;58.20;;;;;;7239604;32;20100;-60
2022/03/25 11:44:25;;;;;;;30.27;16.90;;;17.30;59.10;;;;;;7236051;32;20410;-60
2022/03/25 11:48:27;;;;;;;24.70;15.18;;;17.60;58.10;;;;;;7240589;32;20193;-65
2022/03/25 11:52:30;;;;;;;30.10;16.65;;;17.90;57.90;;;;;;7240521;32;20175;-61
2022/03/25 11:56:48;;;;;;;31.48;18.67;;;17.60;58.30;;;;;;7240852;32;20869;-60
2022/03/25 12:00:54;;;;;;;25.67;14.45;;;17.80;57.80;;;;;;7232614;32;20108;-64
2022/03/25 12:04:58;;;;;;;23.87;16.08;;;18.10;56.70;;;;;;7236735;32;20215;-60
2022/03/25 12:09:06;;;;;;;30.83;17.58;;;18.20;56.40;;;;;;7236890;32;20301;-60
2022/03/25 12:13:08;;;;;;;26.08;15.50;;;18.00;56.90;;;;;;7239110;32;20231;-63
2022/03/25 12:17:21;;;;;;;23.10;12.02;;;18.00;56.90;;;;;;7237136;32;20101;-61
2022/03/25 12:21:26;;;;;;;26.37;15.40;;;18.20;54.30;;;;;;7236314;32;20512;-61
2022/03/25 12:25:29;;;;;;;27.92;15.30;;;17.60;55.20;;;;;;7220270;32;20127;-60
2022/03/25 12:29:33;;;;;;;28.30;18.95;;;17.40;55.90;;;;;;7238336;32;20758;-59
2022/03/25 12:33:52;;;;;;;31.50;17.48;;;17.50;57.80;;;;;;7236992;32;20124;-61
2022/03/25 12:38:04;;;;;;;29.52;18.33;;;17.50;57.90;;;;;;7236961;32;20131;-63
2022/03/25 12:42:13;;;;;;;29.12;18.45;;;17.60;58.90;;;;;;7235236;32;20127;-55
2022/03/25 12:46:16;;;;;;;33.05;18.85;;;17.20;58.20;;;;;;7235122;32;20119;-62
2022/03/25 12:50:18;;;;;;;29.25;19.52;;;17.10;57.90;;;;;;7236332;32;20104;-59
2022/03/25 12:54:20;;;;;;;28.60;18.77;;;17.00;58.20;;;;;;7237157;32;20131;-61
2022/03/25 12:58:23;;;;;;;32.63;18.23;;;17.10;59.50;;;;;;7232157;32;20219;-62
2022/03/25 13:02:31;;;;;;;28.02;16.25;;;17.30;59.10;;;;;;7238670;32;20258;-60
2022/03/25 13:06:33;;;;;;;26.55;16.98;;;17.40;56.00;;;;;;7234429;32;20211;-57
2022/03/25 13:10:36;;;;;;;26.40;17.50;;;17.10;56.40;;;;;;7237262;32;20527;-57
2022/03/25 13:14:52;;;;;;;28.75;17.48;;;17.20;56.40;;;;;;7238310;32;20127;-57
2022/03/25 13:18:54;;;;;;;28.05;17.75;;;17.30;57.50;;;;;;7229694;32;20116;-57
2022/03/25 13:23:07;;;;;;;32.97;17.87;;;17.50;56.20;;;;;;7234802;32;20184;-59
2022/03/25 13:27:09;;;;;;;31.27;20.02;;;17.70;56.60;;;;;;7246058;32;20135;-58
2022/03/25 13:31:12;;;;;;;31.65;20.35;;;17.70;55.80;;;;;;7236725;32;21059;-60
2022/03/25 13:35:15;;;;;;;26.77;18.40;;;18.10;56.80;;;;;;7239676;32;20311;-60
2022/03/25 13:39:16;;;;;;;27.42;19.50;;;18.50;56.90;;;;;;7235958;32;20131;-60
2022/03/25 13:43:23;;;;;;;29.05;19.02;;;18.50;55.00;;;;;;7240221;32;20093;-64
2022/03/25 13:47:25;;;;;;;27.42;20.23;;;18.90;53.80;;;;;;7242111;32;20103;-60
2022/03/25 13:51:29;;;;;;;34.38;20.65;;;18.90;54.30;;;;;;7239841;32;20700;-61
2022/03/25 13:55:39;;;;;;;36.22;21.20;;;18.40;55.50;;;;;;7236028;32;20454;-60
2022/03/25 14:00:10;;;;;;;28.70;18.73;;;18.30;56.30;;;;;;7237253;32;20238;-60
2022/03/25 14:04:22;;;;;;;30.33;17.27;;;18.00;54.30;;;;;;7244424;32;20203;-60
2022/03/25 14:08:33;;;;;;;23.58;15.65;;;18.00;53.40;;;;;;7233828;32;20296;-59
2022/03/25 14:12:35;;;;;;;26.15;15.00;;;17.90;52.20;;;;;;7238967;32;20524;-62
2022/03/25 14:16:36;;;;;;;26.70;16.80;;;18.00;52.20;;;;;;7236866;32;20464;-62
2022/03/25 14:20:39;;;;;;;27.15;17.92;;;17.90;53.20;;;;;;7242049;32;20244;-60
2022/03/25 14:24:41;;;;;;;29.10;19.58;;;18.00;53.10;;;;;;7238374;32;20109;-60
2022/03/25 14:28:43;;;;;;;31.42;19.50;;;18.30;54.80;;;;;;7237173;32;20148;-60
2022/03/25 14:32:45;;;;;;;34.67;19.37;;;18.60;53.20;;;;;;7241832;32;20788;-60
2022/03/25 14:36:47;;;;;;;31.15;20.30;;;18.60;55.20;;;;;;7240672;32;20146;-62
2022/03/25 14:40:48;;;;;;;32.17;20.20;;;18.50;54.10;;;;;;7237066;32;20116;-64
2022/03/25 14:44:50;;;;;;;31.42;19.52;;;18.60;53.80;;;;;;7239550;32;20121;-61
2022/03/25 14:48:52;;;;;;;32.33;20.73;;;18.40;52.40;;;;;;7239275;32;20123;-60
2022/03/25 14:52:54;;;;;;;29.17;20.92;;;17.50;54.10;;;;;;7236774;32;20146;-60
2022/03/25 14:56:56;;;;;;;36.15;20.60;;;17.20;55.00;;;;;;7238936;32;20127;-59
2022/03/25 15:00:58;;;;;;;33.80;20.15;;;17.10;57.20;;;;;;7238027;32;20702;-62
2022/03/25 15:05:01;;;;;;;35.72;19.00;;;17.10;57.90;;;;;;7241074;32;20123;-60
2022/03/25 15:09:04;;;;;;;26.83;16.85;;;16.90;56.70;;;;;;7236421;32;20181;-63
2022/03/25 15:13:05;;;;;;;28.83;17.35;;;16.70;53.90;;;;;;7240452;32;20093;-60
2022/03/25 15:17:09;;;;;;;27.23;17.45;;;16.50;56.00;;;;;;7237546;32;20211;-60
2022/03/25 15:21:12;;;;;;;32.30;17.23;;;16.50;57.20;;;;;;7236931;32;20135;-61
2022/03/25 15:25:13;;;;;;;27.30;17.17;;;16.60;58.80;;;;;;7230103;32;20198;-61
2022/03/25 15:34:26;;;;;;;22.67;15.02;;;16.60;58.00;;;;;;7233858;32;20213;-64
2022/03/25 15:38:02;;;;;;;25.00;14.05;;;16.40;56.60;;;;;;7228590;32;20964;-59
2022/03/25 15:42:04;;;;;;;26.12;14.13;;;16.20;54.70;;;;;;7234497;32;20744;-61
2022/03/25 15:46:09;;;;;;;26.30;12.75;;;16.30;54.40;;;;;;7235328;32;20104;-60
2022/03/25 15:50:11;;;;;;;23.30;13.48;;;16.30;55.40;;;;;;7239588;32;20200;-58
2022/03/25 15:54:13;;;;;;;23.02;12.98;;;16.20;54.10;;;;;;7236952;32;20265;-57
2022/03/25 15:58:15;;;;;;;21.23;13.27;;;16.10;53.90;;;;;;7232402;32;20213;-62
2022/03/25 16:02:18;;;;;;;25.48;13.02;;;16.10;53.70;;;;;;7233565;32;20194;-62
2022/03/25 16:06:20;;;;;;;24.45;13.23;;;16.00;55.30;;;;;;7242883;32;20598;-62
2022/03/25 16:10:22;;;;;;;20.33;12.40;;;16.00;55.10;;;;;;7233663;32;20435;-61
2022/03/25 16:14:24;;;;;;;23.02;12.35;;;15.90;54.50;;;;;;7231666;32;20405;-62
2022/03/25 16:18:34;;;;;;;22.13;11.95;;;15.80;54.40;;;;;;7230205;32;20240;-61
2022/03/25 16:22:40;;;;;;;21.55;11.82;;;15.80;53.50;;;;;;7231708;32;20123;-61
2022/03/25 16:26:42;;;;;;;25.13;12.00;;;15.70;53.00;;;;;;7233593;32;20520;-64
2022/03/25 16:30:44;;;;;;;18.48;11.50;;;15.70;54.90;;;;;;7239997;32;20360;-59
2022/03/25 16:34:46;;;;;;;19.40;10.98;;;15.60;55.10;;;;;;7238173;32;20122;-60
2022/03/25 16:38:48;;;;;;;21.83;12.60;;;15.70;53.90;;;;;;7236363;32;20752;-59
2022/03/25 16:42:50;;;;;;;22.75;12.73;;;15.60;55.10;;;;;;7241424;32;20181;-59
2022/03/25 16:46:55;;;;;;;24.08;13.32;;;15.40;56.40;;;;;;7242186;32;20113;-62
2022/03/25 16:51:15;;;;;;;23.05;12.68;;;15.40;56.40;;;;;;7239059;32;20131;-61
2022/03/25 16:55:17;;;;;;;22.27;13.07;;;15.30;57.40;;;;;;7240252;32;20140;-61
2022/03/25 16:59:18;;;;;;;21.45;13.10;;;15.30;57.70;;;;;;7238341;32;20219;-62
2022/03/25 17:03:47;;;;;;;20.25;13.05;;;15.20;58.30;;;;;;7241084;32;20180;-60
2022/03/25 17:07:49;;;;;;;22.80;13.38;;;15.10;58.70;;;;;;7244740;32;20306;-60
2022/03/25 17:11:51;;;;;;;24.50;13.10;;;15.10;58.10;;;;;;7245642;32;20562;-60
2022/03/25 17:15:53;;;;;;;29.63;15.05;;;14.80;59.20;;;;;;7235070;32;20202;-62
2022/03/25 17:19:55;;;;;;;28.80;15.00;;;14.60;60.30;;;;;;7221078;32;20203;-61
2022/03/25 17:23:57;;;;;;;27.73;16.05;;;14.60;61.40;;;;;;7236738;32;20307;-62
2022/03/25 17:27:59;;;;;;;27.48;16.08;;;14.40;62.70;;;;;;7238829;32;20231;-60
2022/03/25 17:32:02;;;;;;;29.20;16.23;;;14.30;63.80;;;;;;7236092;32;20254;-62
2022/03/25 17:36:07;;;;;;;28.65;16.30;;;14.10;65.00;;;;;;7235679;32;20188;-62
2022/03/25 17:40:09;;;;;;;33.22;17.33;;;14.00;65.70;;;;;;7232195;32;20816;-61
2022/03/25 17:44:15;;;;;;;26.83;16.12;;;13.90;67.30;;;;;;7235862;32;20403;-62
2022/03/25 17:48:19;;;;;;;28.65;17.05;;;13.70;68.80;;;;;;7231970;32;20911;-60
2022/03/25 17:52:22;;;;;;;26.27;17.00;;;13.60;69.30;;;;;;7232729;32;20235;-63
2022/03/25 17:56:25;;;;;;;30.98;17.52;;;13.40;71.20;;;;;;7235462;32;20589;-61
2022/03/25 18:00:27;;;;;;;31.90;17.40;;;13.30;72.40;;;;;;7238713;32;20105;-61
2022/03/25 18:04:29;;;;;;;27.17;16.67;;;13.10;74.00;;;;;;7246100;32;20132;-57
2022/03/25 18:08:30;;;;;;;33.97;18.48;;;12.90;76.30;;;;;;7244405;32;20233;-60
2022/03/25 18:12:33;;;;;;;31.73;18.23;;;12.70;78.00;;;;;;7244134;32;20206;-60
2022/03/25 18:16:34;;;;;;;36.25;18.83;;;12.50;80.70;;;;;;7232204;32;20114;-60
2022/03/25 18:20:36;;;;;;;30.85;17.90;;;12.40;83.20;;;;;;7245100;32;20510;-60
2022/03/25 18:24:43;;;;;;;32.67;17.55;;;12.30;84.50;;;;;;7221256;32;20243;-60
2022/03/25 18:28:44;;;;;;;34.33;18.70;;;12.10;89.30;;;;;;7242591;32;20105;-60
2022/03/25 18:32:46;;;;;;;33.40;19.83;;;11.90;90.70;;;;;;7242816;32;20253;-60
2022/03/25 18:36:48;;;;;;;31.75;18.50;;;11.80;91.80;;;;;;7236729;32;20169;-60
2022/03/25 18:40:50;;;;;;;30.67;19.60;;;11.70;92.70;;;;;;7241326;32;20105;-61
2022/03/25 18:44:52;;;;;;;31.15;18.58;;;11.70;93.70;;;;;;7247085;32;20321;-61
2022/03/25 18:48:53;;;;;;;36.00;19.80;;;11.60;94.60;;;;;;7245983;32;20531;-60
2022/03/25 18:52:56;;;;;;;35.90;19.77;;;11.60;95.20;;;;;;7215070;32;20369;-60
2022/03/25 18:57:02;;;;;;;38.38;18.90;;;11.60;95.80;;;;;;7239829;32;20124;-59
2022/03/25 19:01:05;;;;;;;31.00;19.58;;;11.40;97.10;;;;;;7237740;32;20230;-60
2022/03/25 19:05:07;;;;;;;36.50;19.20;;;11.40;98.00;;;;;;7231013;32;20579;-60
2022/03/25 19:09:09;;;;;;;32.17;19.30;;;11.30;98.20;;;;;;7202608;32;20148;-60
2022/03/25 19:13:11;;;;;;;33.53;19.02;;;11.40;98.20;;;;;;7222615;32;20246;-60
2022/03/25 19:17:13;;;;;;;33.95;19.35;;;11.30;98.90;;;;;;7240257;32;20839;-60
2022/03/25 19:21:15;;;;;;;32.50;18.40;;;11.20;99.80;;;;;;7235959;32;20100;-60
2022/03/25 19:25:21;;;;;;;28.90;18.92;;;11.20;99.90;;;;;;7234647;32;20177;-61
2022/03/25 19:29:22;;;;;;;33.67;18.98;;;11.00;99.90;;;;;;7242284;32;20226;-60
2022/03/25 19:33:27;;;;;;;34.42;17.92;;;10.80;99.90;;;;;;7201636;32;20121;-63
2022/03/25 19:37:30;;;;;;;37.08;18.40;;;10.60;99.90;;;;;;7240465;32;20453;-61
2022/03/25 19:41:34;;;;;;;31.23;18.48;;;10.40;99.90;;;;;;7232718;32;20213;-61
2022/03/25 19:45:37;;;;;;;35.80;19.98;;;10.10;99.90;;;;;;7239768;32;20105;-61
2022/03/25 19:49:38;;;;;;;32.08;19.52;;;9.90;99.90;;;;;;7245512;32;20172;-61
2022/03/25 19:53:41;;;;;;;37.38;19.23;;;9.70;99.90;;;;;;7239930;32;20196;-62
2022/03/25 19:57:43;;;;;;;34.50;17.73;;;9.50;99.90;;;;;;7236577;32;20217;-62
2022/03/25 20:01:46;;;;;;;31.12;17.67;;;9.30;99.90;;;;;;7214310;32;20504;-61
2022/03/25 20:05:49;;;;;;;34.00;19.75;;;9.10;99.90;;;;;;7240607;32;20146;-62
2022/03/25 20:09:52;;;;;;;37.58;19.30;;;9.00;99.90;;;;;;7245683;32;20170;-61
2022/03/25 20:13:54;;;;;;;35.97;19.65;;;8.90;99.90;;;;;;7240264;32;20139;-61
2022/03/25 20:17:56;;;;;;;32.58;19.60;;;8.80;99.90;;;;;;7237982;32;20158;-61
2022/03/25 20:21:57;;;;;;;36.67;18.67;;;8.60;99.90;;;;;;7231509;32;20131;-63
2022/03/25 20:25:59;;;;;;;33.30;19.52;;;8.60;99.90;;;;;;7246241;32;20108;-63
2022/03/25 20:30:01;;;;;;;38.85;19.95;;;8.50;99.90;;;;;;7244290;32;20104;-64
2022/03/25 20:34:04;;;;;;;38.28;20.02;;;8.50;99.90;;;;;;7242466;32;20188;-63
2022/03/25 20:38:05;;;;;;;35.05;19.55;;;8.40;99.90;;;;;;7244122;32;20130;-62
2022/03/25 20:42:10;;;;;;;34.83;19.90;;;8.20;99.90;;;;;;7237861;32;20132;-62
2022/03/25 20:46:12;;;;;;;32.10;19.55;;;8.10;99.90;;;;;;7239867;32;20096;-63
2022/03/25 20:50:14;;;;;;;37.30;20.88;;;8.10;99.90;;;;;;7225310;32;20227;-62